Baldwin, Iowa
Current Conditions -  °F | °C
As of 8:35 PM on Sunday 21 Dec 2014 (Local Time) from KMXO Reporting Station
Overcast Overcast  
Wind Chill: 28°   Ceiling: 1300
Heat Index: 37°   Visibility: 7mi
Dew Point: 36°   Wind: 17mph
Humidity: 93%   Direction: 140°SE
Pressure: 29.9"   Gusts: 25mph
Location:  42.07°N, 90.84°W
Report Text: KMXO 220235Z AUTO 14015G22KT 7SM BKN013 BKN017 OVC032 03/02 A2990 RMK AO2
Loading
Personal Weather Stations






























Interactive Weather Map New forecast layout! Learn more

10-Day Weather Forecast

Advertisements
Track Severe Weather on mobile